createdAt,value
2023-01-09T00:00:11.470Z,15.38
2023-01-09T00:02:41.107Z,15.37
2023-01-09T00:05:12.047Z,15.38
2023-01-09T00:07:40.439Z,15.35
2023-01-09T00:10:13.355Z,15.36
2023-01-09T00:12:41.871Z,15.33
2023-01-09T00:15:12.350Z,15.32
2023-01-09T00:17:41.153Z,15.29
2023-01-09T00:20:12.377Z,15.29
2023-01-09T00:22:40.928Z,15.28
2023-01-09T00:25:11.282Z,15.27
2023-01-09T00:27:40.059Z,15.27
2023-01-09T00:30:10.837Z,15.27
2023-01-09T00:32:39.517Z,15.26
2023-01-09T00:35:10.588Z,15.24
2023-01-09T00:37:38.926Z,15.22
2023-01-09T00:40:08.282Z,15.19
2023-01-09T00:42:38.925Z,15.20
2023-01-09T00:45:12.837Z,15.18
2023-01-09T00:47:46.383Z,15.19
2023-01-09T00:50:21.602Z,15.17
2023-01-09T00:52:51.999Z,15.15
2023-01-09T00:55:20.799Z,15.14
2023-01-09T00:57:50.851Z,15.15
2023-01-09T01:00:20.107Z,15.14
2023-01-09T01:02:49.074Z,15.14
2023-01-09T01:05:35.310Z,15.14
2023-01-09T01:08:12.083Z,15.14
2023-01-09T01:10:40.569Z,15.11
2023-01-09T01:13:11.076Z,15.14
2023-01-09T01:15:41.026Z,15.12
2023-01-09T01:18:09.695Z,15.13
2023-01-09T01:20:40.673Z,15.11
2023-01-09T01:23:09.380Z,15.12
2023-01-09T01:25:38.854Z,15.11
2023-01-09T01:28:08.974Z,15.13
2023-01-09T01:30:40.435Z,15.14
2023-01-09T01:33:09.572Z,15.14
2023-01-09T01:35:38.768Z,15.11
2023-01-09T01:38:07.191Z,15.08
2023-01-09T01:40:38.235Z,15.08
2023-01-09T01:43:07.048Z,15.07
2023-01-09T01:45:36.842Z,15.06
2023-01-09T01:48:09.924Z,15.05
2023-01-09T01:50:44.314Z,15.02
2023-01-09T01:53:16.833Z,15.01
2023-01-09T01:55:51.065Z,14.98
2023-01-09T01:58:19.885Z,14.95
2023-01-09T02:00:50.122Z,14.95
2023-01-09T02:03:24.698Z,14.95
2023-01-09T02:05:53.366Z,14.93
2023-01-09T02:08:23.309Z,14.94
2023-01-09T02:10:53.852Z,14.95
2023-01-09T02:13:22.667Z,14.96
2023-01-09T02:16:10.764Z,14.97
2023-01-09T02:18:47.977Z,14.97
2023-01-09T02:21:28.964Z,14.96
2023-01-09T02:24:17.815Z,14.94
2023-01-09T02:27:26.223Z,14.92
2023-01-09T02:30:36.088Z,14.93
2023-01-09T02:33:22.427Z,14.93
2023-01-09T02:36:13.160Z,14.93
2023-01-09T02:38:55.830Z,14.96
2023-01-09T02:41:32.400Z,14.95
2023-01-09T02:44:22.417Z,14.95
2023-01-09T02:47:04.784Z,14.95
2023-01-09T02:49:34.731Z,14.94
2023-01-09T02:52:22.828Z,14.94
2023-01-09T02:55:02.559Z,14.93
2023-01-09T02:57:51.096Z,14.93
2023-01-09T03:00:32.551Z,14.92
2023-01-09T03:03:10.019Z,14.91
2023-01-09T03:05:45.920Z,14.90
2023-01-09T03:08:18.195Z,14.90
2023-01-09T03:10:52.891Z,14.89
2023-01-09T03:13:27.194Z,14.89
2023-01-09T03:15:58.333Z,14.89
2023-01-09T03:18:31.176Z,14.88
2023-01-09T03:20:59.684Z,14.87
2023-01-09T03:23:28.242Z,14.89
2023-01-09T03:25:56.797Z,14.87
2023-01-09T03:28:30.159Z,14.89
2023-01-09T03:30:58.896Z,14.87
2023-01-09T03:33:28.974Z,14.88
2023-01-09T03:35:57.541Z,14.87
2023-01-09T03:38:26.221Z,14.87
2023-01-09T03:40:54.637Z,14.87
2023-01-09T03:43:23.135Z,14.87
2023-01-09T03:45:52.210Z,14.87
2023-01-09T03:48:21.099Z,14.86
2023-01-09T03:50:54.536Z,14.85
2023-01-09T03:53:25.775Z,14.86
2023-01-09T03:55:57.854Z,14.84
2023-01-09T03:58:27.723Z,14.85
2023-01-09T04:01:01.593Z,14.85
2023-01-09T04:03:30.723Z,14.83
2023-01-09T04:06:01.550Z,14.84
2023-01-09T04:08:30.649Z,14.83
2023-01-09T04:10:59.426Z,14.84
2023-01-09T04:13:28.183Z,14.84
2023-01-09T04:15:59.137Z,14.85
2023-01-09T04:18:27.805Z,14.83
2023-01-09T04:20:56.232Z,14.85
2023-01-09T04:23:26.119Z,14.86
2023-01-09T04:25:54.612Z,14.86
2023-01-09T04:28:25.703Z,14.86
2023-01-09T04:30:54.391Z,14.87
2023-01-09T04:33:23.211Z,14.87
2023-01-09T04:35:54.554Z,14.86
2023-01-09T04:38:23.371Z,14.86
2023-01-09T04:40:53.563Z,14.86
2023-01-09T04:43:22.004Z,14.86
2023-01-09T04:45:50.416Z,14.86
2023-01-09T04:48:19.037Z,14.83
2023-01-09T04:50:47.433Z,14.83
2023-01-09T04:53:15.842Z,14.82
2023-01-09T04:55:44.604Z,14.81
2023-01-09T04:58:14.974Z,14.80
2023-01-09T05:00:43.375Z,14.77
2023-01-09T05:03:11.815Z,14.77
2023-01-09T05:05:40.612Z,14.75
2023-01-09T05:08:09.305Z,14.72
2023-01-09T05:10:37.794Z,14.71
2023-01-09T05:13:08.692Z,14.71
2023-01-09T05:15:38.597Z,14.69
2023-01-09T05:18:09.393Z,14.67
2023-01-09T05:20:40.873Z,14.66
2023-01-09T05:23:09.252Z,14.64
2023-01-09T05:25:37.748Z,14.60
2023-01-09T05:28:06.374Z,14.61
2023-01-09T05:30:34.954Z,14.59
2023-01-09T05:33:04.995Z,14.58
2023-01-09T05:35:33.414Z,14.56
2023-01-09T05:38:02.156Z,14.54
2023-01-09T05:40:39.608Z,14.55
2023-01-09T05:43:08.782Z,14.54
2023-01-09T05:45:37.770Z,14.54
2023-01-09T05:48:09.148Z,14.55
2023-01-09T05:50:37.739Z,14.53
2023-01-09T05:53:07.236Z,14.52
2023-01-09T05:55:35.801Z,14.51
2023-01-09T05:58:04.194Z,14.51
2023-01-09T06:00:32.695Z,14.49
2023-01-09T06:03:01.398Z,14.49
2023-01-09T06:05:31.390Z,14.49
2023-01-09T06:07:59.852Z,14.49
2023-01-09T06:10:28.407Z,14.49
2023-01-09T06:12:56.854Z,14.49
2023-01-09T06:15:25.237Z,14.47
2023-01-09T06:17:53.793Z,14.46
2023-01-09T06:20:23.248Z,14.45
2023-01-09T06:22:53.428Z,14.45
2023-01-09T06:25:21.937Z,14.46
2023-01-09T06:27:52.085Z,14.47
2023-01-09T06:30:20.777Z,14.47
2023-01-09T06:32:50.939Z,14.48
2023-01-09T06:35:20.868Z,14.49
2023-01-09T06:37:50.116Z,14.48
2023-01-09T06:40:21.564Z,14.48
2023-01-09T06:42:51.063Z,14.47
2023-01-09T06:45:19.610Z,14.48
2023-01-09T06:47:49.965Z,14.49
2023-01-09T06:50:18.941Z,14.48
2023-01-09T06:52:47.580Z,14.48
2023-01-09T06:55:17.709Z,14.47
2023-01-09T06:57:47.624Z,14.45
2023-01-09T07:00:17.437Z,14.45
2023-01-09T07:02:46.486Z,14.45
2023-01-09T07:05:15.484Z,14.43
2023-01-09T07:07:44.187Z,14.43
2023-01-09T07:10:13.499Z,14.42
2023-01-09T07:12:42.134Z,14.41
2023-01-09T07:15:13.025Z,14.40
2023-01-09T07:17:41.665Z,14.39
2023-01-09T07:20:12.162Z,14.41
2023-01-09T07:22:40.701Z,14.41
2023-01-09T07:25:09.671Z,14.41
2023-01-09T07:27:38.225Z,14.39
2023-01-09T07:30:09.251Z,14.39
2023-01-09T07:32:41.019Z,14.38
2023-01-09T07:35:10.627Z,14.37
2023-01-09T07:37:39.346Z,14.35
2023-01-09T07:40:09.999Z,14.35
2023-01-09T07:42:38.816Z,14.33
2023-01-09T07:45:09.040Z,14.35
2023-01-09T07:47:41.019Z,14.33
2023-01-09T07:50:11.285Z,14.33
2023-01-09T07:52:39.943Z,14.34
2023-01-09T07:55:10.968Z,14.32
2023-01-09T07:57:39.488Z,14.33
2023-01-09T08:00:11.110Z,14.33
2023-01-09T08:02:43.959Z,14.32
2023-01-09T08:05:14.983Z,14.31
2023-01-09T08:07:44.106Z,14.30
2023-01-09T08:10:13.923Z,14.30
2023-01-09T08:12:44.667Z,14.29
2023-01-09T08:15:14.024Z,14.28
2023-01-09T08:17:45.650Z,14.28
2023-01-09T08:20:16.391Z,14.25
2023-01-09T08:22:50.071Z,14.24
2023-01-09T08:25:19.591Z,14.24
2023-01-09T08:27:48.394Z,14.26
2023-01-09T08:30:18.426Z,14.26
2023-01-09T08:32:52.649Z,14.27
2023-01-09T08:35:21.649Z,14.28
2023-01-09T08:37:50.876Z,14.29
2023-01-09T08:40:20.299Z,14.29
2023-01-09T08:43:06.435Z,14.28
2023-01-09T08:45:53.028Z,14.27
2023-01-09T08:48:22.917Z,14.25
2023-01-09T08:50:52.479Z,14.26
2023-01-09T08:53:20.829Z,14.26
2023-01-09T08:55:49.307Z,14.28
2023-01-09T08:58:17.921Z,14.28
2023-01-09T09:00:46.454Z,14.27
2023-01-09T09:03:15.068Z,14.28
2023-01-09T09:05:46.796Z,14.29
2023-01-09T09:08:16.458Z,14.28
2023-01-09T09:10:45.316Z,14.28
2023-01-09T09:13:13.990Z,14.30
2023-01-09T09:15:42.528Z,14.31
2023-01-09T09:18:11.049Z,14.31
2023-01-09T09:20:41.065Z,14.33
2023-01-09T09:23:10.956Z,14.33
2023-01-09T09:25:39.493Z,14.34
2023-01-09T09:28:08.264Z,14.36
2023-01-09T09:30:36.932Z,14.35
2023-01-09T09:33:05.991Z,14.36
2023-01-09T09:35:35.373Z,14.36
2023-01-09T09:38:06.360Z,14.37
2023-01-09T09:41:35.444Z,14.36
2023-01-09T09:44:53.462Z,14.35
2023-01-09T09:47:50.737Z,14.32
2023-01-09T09:50:33.489Z,14.33
2023-01-09T09:53:10.237Z,14.33
2023-01-09T09:55:41.750Z,14.33
2023-01-09T09:58:22.305Z,14.35
2023-01-09T10:00:52.003Z,14.34
2023-01-09T10:03:33.916Z,14.33
2023-01-09T10:06:10.314Z,14.34
2023-01-09T10:08:46.902Z,14.34
2023-01-09T10:11:23.500Z,14.33
2023-01-09T10:14:06.274Z,14.32
2023-01-09T10:16:50.846Z,14.32
2023-01-09T10:19:38.790Z,14.32
2023-01-09T10:22:24.374Z,14.34
2023-01-09T10:25:18.360Z,14.34
2023-01-09T10:28:09.914Z,14.36
2023-01-09T10:30:45.402Z,14.37
2023-01-09T10:33:37.191Z,14.37
2023-01-09T10:36:42.177Z,14.37
2023-01-09T10:39:19.732Z,14.38
2023-01-09T10:41:58.465Z,14.41
2023-01-09T10:44:34.857Z,14.40
2023-01-09T10:47:10.721Z,14.40
2023-01-09T10:49:40.943Z,14.40
2023-01-09T10:52:18.200Z,14.39
2023-01-09T10:54:54.895Z,14.40
2023-01-09T10:57:42.486Z,14.41
2023-01-09T11:00:21.553Z,14.40
2023-01-09T11:02:55.143Z,14.42
2023-01-09T11:05:27.907Z,14.44
2023-01-09T11:08:02.356Z,14.46
2023-01-09T11:10:48.678Z,14.47
2023-01-09T11:13:23.105Z,14.47
2023-01-09T11:16:05.903Z,14.48
2023-01-09T11:18:39.701Z,14.49
2023-01-09T11:21:29.537Z,14.51
2023-01-09T11:23:58.738Z,14.51
2023-01-09T11:26:29.548Z,14.54
2023-01-09T11:29:12.168Z,14.55
2023-01-09T11:31:42.330Z,14.56
2023-01-09T11:34:19.282Z,14.58
2023-01-09T11:36:48.334Z,14.60
2023-01-09T11:39:26.000Z,14.62
2023-01-09T11:41:57.443Z,14.64
2023-01-09T11:44:26.806Z,14.65
2023-01-09T11:46:55.328Z,14.66
2023-01-09T11:49:28.314Z,14.68
2023-01-09T11:52:16.713Z,14.67
2023-01-09T11:54:51.472Z,14.67
2023-01-09T11:57:21.768Z,14.68
2023-01-09T11:59:50.338Z,14.68
2023-01-09T12:02:44.122Z,14.68
2023-01-09T12:05:27.961Z,14.68
2023-01-09T12:08:35.970Z,14.68
2023-01-09T12:11:34.435Z,14.66
2023-01-09T12:14:31.270Z,14.66
2023-01-09T12:17:19.475Z,14.64
2023-01-09T12:20:10.477Z,14.67
2023-01-09T12:22:49.090Z,14.68
2023-01-09T12:25:30.676Z,14.68
2023-01-09T12:28:21.274Z,14.67
2023-01-09T12:31:02.806Z,14.66
2023-01-09T12:33:41.242Z,14.65
2023-01-09T12:36:18.155Z,14.65
2023-01-09T12:38:56.987Z,14.64
2023-01-09T12:41:51.052Z,14.63
2023-01-09T12:44:52.375Z,14.62
2023-01-09T12:47:50.937Z,14.61
2023-01-09T12:51:01.155Z,14.60
2023-01-09T12:53:35.597Z,14.60
2023-01-09T12:56:11.660Z,14.60
2023-01-09T12:58:45.492Z,14.60
2023-01-09T13:01:19.056Z,14.61
2023-01-09T13:03:54.523Z,14.60
2023-01-09T13:06:34.508Z,14.59
2023-01-09T13:09:16.305Z,14.59
2023-01-09T13:11:54.451Z,14.58
2023-01-09T13:14:38.755Z,14.54
2023-01-09T13:17:14.029Z,14.52
2023-01-09T13:19:46.160Z,14.49
2023-01-09T13:22:15.885Z,14.48
2023-01-09T13:25:17.399Z,14.51
2023-01-09T13:27:56.085Z,14.51
2023-01-09T13:30:47.453Z,14.51
2023-01-09T13:33:22.925Z,14.51
2023-01-09T13:35:54.365Z,14.51
2023-01-09T13:38:26.463Z,14.52
2023-01-09T13:41:30.937Z,14.51
2023-01-09T13:44:04.091Z,14.50
2023-01-09T13:46:43.775Z,14.51
2023-01-09T13:49:35.890Z,14.49
2023-01-09T13:52:07.601Z,14.48
2023-01-09T13:55:24.004Z,14.46
2023-01-09T13:58:25.699Z,14.42
2023-01-09T14:01:44.227Z,14.41
2023-01-09T14:04:45.090Z,14.40
2023-01-09T14:07:25.009Z,14.42
2023-01-09T14:10:00.380Z,14.45
2023-01-09T14:12:32.568Z,14.46
2023-01-09T14:15:03.258Z,14.47
2023-01-09T14:17:38.225Z,14.48
2023-01-09T14:20:24.456Z,14.47
2023-01-09T14:23:18.087Z,14.47
2023-01-09T14:25:47.706Z,14.45
2023-01-09T14:28:23.877Z,14.47
2023-01-09T14:31:09.440Z,14.47
2023-01-09T14:33:39.604Z,14.46
2023-01-09T14:36:17.149Z,14.47
2023-01-09T14:38:48.410Z,14.46
2023-01-09T14:41:39.670Z,14.46
2023-01-09T14:44:20.547Z,14.47
2023-01-09T14:46:51.179Z,14.48
2023-01-09T14:49:31.772Z,14.49
2023-01-09T14:52:04.103Z,14.49
2023-01-09T14:54:38.383Z,14.48
2023-01-09T14:57:25.806Z,14.49
2023-01-09T15:00:02.567Z,14.48
2023-01-09T15:02:36.966Z,14.49
2023-01-09T15:05:10.360Z,14.48
2023-01-09T15:07:45.409Z,14.48
2023-01-09T15:10:21.070Z,14.48
2023-01-09T15:12:52.592Z,14.49
2023-01-09T15:15:23.388Z,14.48
2023-01-09T15:17:58.401Z,14.49
2023-01-09T15:20:33.132Z,14.49
2023-01-09T15:23:04.545Z,14.48
2023-01-09T15:25:40.438Z,14.49
2023-01-09T15:28:26.989Z,14.49
2023-01-09T15:31:04.590Z,14.48
2023-01-09T15:33:33.985Z,14.46
2023-01-09T15:36:13.330Z,14.47
2023-01-09T15:38:43.471Z,14.48
2023-01-09T15:41:39.674Z,14.49
2023-01-09T15:44:17.411Z,14.48
2023-01-09T15:46:50.022Z,14.47
2023-01-09T15:49:19.493Z,14.47
2023-01-09T15:51:50.486Z,14.48
2023-01-09T15:54:29.623Z,14.49
2023-01-09T15:57:30.790Z,14.47
2023-01-09T16:00:39.479Z,14.46
2023-01-09T16:03:24.091Z,14.45
2023-01-09T16:05:57.979Z,14.44
2023-01-09T16:08:32.298Z,14.43
2023-01-09T16:11:05.776Z,14.44
2023-01-09T16:13:40.548Z,14.43
2023-01-09T16:16:10.118Z,14.43
2023-01-09T16:18:40.310Z,14.45
2023-01-09T16:21:35.031Z,14.45
2023-01-09T16:24:24.841Z,14.44
2023-01-09T16:26:54.396Z,14.42
2023-01-09T16:29:37.019Z,14.44
2023-01-09T16:32:07.835Z,14.44
2023-01-09T16:34:37.461Z,14.44
2023-01-09T16:37:06.664Z,14.43
2023-01-09T16:39:36.681Z,14.42
2023-01-09T16:42:27.627Z,14.42
2023-01-09T16:45:21.807Z,14.38
2023-01-09T16:47:50.739Z,14.36
2023-01-09T16:50:19.329Z,14.35
2023-01-09T16:52:47.881Z,14.37
2023-01-09T16:55:18.246Z,14.38
2023-01-09T16:57:46.783Z,14.36
2023-01-09T17:00:17.947Z,14.38
2023-01-09T17:02:48.106Z,14.37
2023-01-09T17:05:17.038Z,14.38
2023-01-09T17:07:45.771Z,14.37
2023-01-09T17:10:22.785Z,14.37
2023-01-09T17:12:51.874Z,14.36
2023-01-09T17:15:20.862Z,14.34
2023-01-09T17:17:49.299Z,14.34
2023-01-09T17:20:21.827Z,14.35
2023-01-09T17:22:50.188Z,14.34
2023-01-09T17:25:37.746Z,14.33
2023-01-09T17:28:24.197Z,14.31
2023-01-09T17:30:53.317Z,14.29
2023-01-09T17:33:21.724Z,14.29
2023-01-09T17:35:50.241Z,14.30
2023-01-09T17:38:18.746Z,14.31
2023-01-09T17:40:48.630Z,14.31
2023-01-09T17:43:18.895Z,14.29
2023-01-09T17:45:47.541Z,14.28
2023-01-09T17:48:18.936Z,14.25
2023-01-09T17:50:49.005Z,14.25
2023-01-09T17:53:20.671Z,14.24
2023-01-09T17:55:50.765Z,14.24
2023-01-09T17:58:30.120Z,14.25
2023-01-09T18:00:59.240Z,14.23
2023-01-09T18:03:33.325Z,14.20
2023-01-09T18:06:02.203Z,14.18
2023-01-09T18:08:30.640Z,14.18
2023-01-09T18:11:03.887Z,14.18
2023-01-09T18:13:33.609Z,14.16
2023-01-09T18:16:02.541Z,14.16
2023-01-09T18:18:31.757Z,14.15
2023-01-09T18:21:00.610Z,14.14
2023-01-09T18:23:29.386Z,14.14
2023-01-09T18:25:57.959Z,14.15
2023-01-09T18:28:27.898Z,14.14
2023-01-09T18:30:56.365Z,14.11
2023-01-09T18:33:24.933Z,14.10
2023-01-09T18:35:53.420Z,14.08
2023-01-09T18:38:21.852Z,14.08
2023-01-09T18:40:50.640Z,14.08
2023-01-09T18:43:20.383Z,14.04
2023-01-09T18:45:50.312Z,14.03
2023-01-09T18:48:18.808Z,14.03
2023-01-09T18:50:47.300Z,14.05
2023-01-09T18:53:16.072Z,14.06
2023-01-09T18:55:44.499Z,14.05
2023-01-09T18:58:13.466Z,14.06
2023-01-09T19:00:42.359Z,14.06
2023-01-09T19:03:15.144Z,14.07
2023-01-09T19:05:43.914Z,14.05
2023-01-09T19:08:13.391Z,14.06
2023-01-09T19:10:42.035Z,14.05
2023-01-09T19:13:10.986Z,14.06
2023-01-09T19:15:39.399Z,14.03
2023-01-09T19:18:07.900Z,14.04
2023-01-09T19:20:39.643Z,14.03
2023-01-09T19:23:08.110Z,14.03
2023-01-09T19:25:36.635Z,14.02
2023-01-09T19:28:05.309Z,14.02
2023-01-09T19:30:34.667Z,14.02
2023-01-09T19:33:03.205Z,14.01
2023-01-09T19:35:33.310Z,14.03
2023-01-09T19:38:03.380Z,14.03
2023-01-09T19:40:31.960Z,14.02
2023-01-09T19:43:00.667Z,14.01
2023-01-09T19:45:29.212Z,14.01
2023-01-09T19:47:57.813Z,14.02
2023-01-09T19:50:26.392Z,14.02
2023-01-09T19:52:55.628Z,14.02
2023-01-09T19:55:25.567Z,14.02
2023-01-09T19:57:54.029Z,14.00
2023-01-09T20:00:22.727Z,13.98
2023-01-09T20:02:51.737Z,14.00
2023-01-09T20:05:20.302Z,13.98
2023-01-09T20:07:48.761Z,13.96
2023-01-09T20:10:17.737Z,13.95
2023-01-09T20:12:47.730Z,13.94
2023-01-09T20:15:16.329Z,13.94
2023-01-09T20:17:44.856Z,13.93
2023-01-09T20:20:13.625Z,13.93
2023-01-09T20:22:42.125Z,13.92
2023-01-09T20:25:12.717Z,13.91
2023-01-09T20:27:41.416Z,13.92
2023-01-09T20:30:13.924Z,13.92
2023-01-09T20:32:44.674Z,13.92
2023-01-09T20:35:13.395Z,13.91
2023-01-09T20:37:42.407Z,13.90
2023-01-09T20:40:12.309Z,13.91
2023-01-09T20:42:40.862Z,13.91
2023-01-09T20:45:12.089Z,13.92
2023-01-09T20:47:40.857Z,13.90
2023-01-09T20:50:11.270Z,13.89
2023-01-09T20:52:39.778Z,13.89
2023-01-09T20:55:09.197Z,13.89
2023-01-09T20:57:38.141Z,13.88
2023-01-09T21:00:09.263Z,13.88
2023-01-09T21:02:39.920Z,13.89
2023-01-09T21:05:09.432Z,13.88
2023-01-09T21:07:38.137Z,13.87
2023-01-09T21:10:07.975Z,13.89
2023-01-09T21:12:36.631Z,13.89
2023-01-09T21:15:09.143Z,13.86
2023-01-09T21:17:41.471Z,13.89
2023-01-09T21:20:13.650Z,13.89
2023-01-09T21:22:42.616Z,13.86
2023-01-09T21:25:11.569Z,13.88
2023-01-09T21:27:42.614Z,13.86
2023-01-09T21:30:12.652Z,13.87
2023-01-09T21:32:42.651Z,13.87
2023-01-09T21:35:11.227Z,13.87
2023-01-09T21:37:39.934Z,13.86
2023-01-09T21:40:13.481Z,13.83
2023-01-09T21:42:59.545Z,13.79
2023-01-09T21:45:45.523Z,13.80
2023-01-09T21:48:16.477Z,13.80
2023-01-09T21:50:45.354Z,13.78
2023-01-09T21:53:13.871Z,13.80
2023-01-09T21:55:42.505Z,13.80
2023-01-09T21:58:12.045Z,13.79
2023-01-09T22:00:41.119Z,13.77
2023-01-09T22:03:18.947Z,13.77
2023-01-09T22:05:47.490Z,13.77
2023-01-09T22:08:15.993Z,13.77
2023-01-09T22:10:44.778Z,13.78
2023-01-09T22:13:17.764Z,13.77
2023-01-09T22:15:47.479Z,13.76
2023-01-09T22:18:16.024Z,13.77
2023-01-09T22:20:46.647Z,13.77
2023-01-09T22:23:15.507Z,13.77
2023-01-09T22:25:44.156Z,13.76
2023-01-09T22:28:12.631Z,13.75
2023-01-09T22:30:42.665Z,13.76
2023-01-09T22:33:12.199Z,13.75
2023-01-09T22:35:41.661Z,13.75
2023-01-09T22:38:13.245Z,13.74
2023-01-09T22:40:42.334Z,13.74
2023-01-09T22:43:14.313Z,13.73
2023-01-09T22:45:43.112Z,13.74
2023-01-09T22:48:11.936Z,13.74
2023-01-09T22:50:40.630Z,13.76
2023-01-09T22:53:09.007Z,13.77
2023-01-09T22:55:38.886Z,13.82
2023-01-09T22:58:07.579Z,13.83
2023-01-09T23:00:35.943Z,13.83
2023-01-09T23:03:04.546Z,13.84
2023-01-09T23:05:33.038Z,13.84
2023-01-09T23:08:01.686Z,13.84
2023-01-09T23:10:30.270Z,13.83
2023-01-09T23:13:00.619Z,13.83
2023-01-09T23:15:29.135Z,13.80
2023-01-09T23:17:57.677Z,13.80
2023-01-09T23:20:26.105Z,13.81
2023-01-09T23:22:54.563Z,13.81
2023-01-09T23:25:23.062Z,13.83
2023-01-09T23:27:51.880Z,13.83
2023-01-09T23:30:22.314Z,13.84
2023-01-09T23:32:51.155Z,13.83
2023-01-09T23:35:19.877Z,13.84
2023-01-09T23:37:48.618Z,13.86
2023-01-09T23:40:18.551Z,13.85
2023-01-09T23:43:04.654Z,13.84
2023-01-09T23:45:35.306Z,13.82
2023-01-09T23:48:04.177Z,13.79
2023-01-09T23:50:32.944Z,13.77
2023-01-09T23:53:02.189Z,13.77
2023-01-09T23:55:30.721Z,13.75
2023-01-09T23:57:59.497Z,13.75
